createdAt,value
2022-08-03T00:02:20.847Z,50.80
2022-08-03T00:07:19.006Z,51.03
2022-08-03T00:12:17.276Z,50.95
2022-08-03T00:17:15.642Z,51.21
2022-08-03T00:22:15.893Z,51.03
2022-08-03T00:27:15.803Z,51.09
2022-08-03T00:32:15.036Z,51.61
2022-08-03T00:37:17.285Z,51.91
2022-08-03T00:42:15.944Z,51.92
2022-08-03T00:47:14.448Z,52.25
2022-08-03T00:52:14.769Z,51.83
2022-08-03T00:57:14.330Z,51.83
2022-08-03T01:02:12.502Z,51.71
2022-08-03T01:07:18.910Z,52.15
2022-08-03T01:12:28.717Z,52.12
2022-08-03T01:17:35.574Z,52.29
2022-08-03T01:22:53.066Z,52.19
2022-08-03T01:28:02.799Z,52.52
2022-08-03T01:33:06.441Z,52.85
2022-08-03T01:38:11.254Z,52.99
2022-08-03T01:43:12.046Z,53.27
2022-08-03T01:48:17.034Z,53.65
2022-08-03T01:53:16.709Z,53.78
2022-08-03T01:58:16.527Z,53.67
2022-08-03T02:03:17.718Z,53.52
2022-08-03T02:08:18.160Z,53.63
2022-08-03T02:13:18.057Z,53.02
2022-08-03T02:18:19.707Z,52.99
2022-08-03T02:23:18.522Z,52.94
2022-08-03T02:28:19.530Z,52.97
2022-08-03T02:33:25.709Z,53.02
2022-08-03T02:38:29.409Z,53.21
2022-08-03T02:43:28.571Z,54.04
2022-08-03T02:48:39.496Z,54.33
2022-08-03T02:53:37.839Z,54.70
2022-08-03T02:58:36.919Z,54.97
2022-08-03T03:03:42.892Z,55.30
2022-08-03T03:08:45.020Z,54.95
2022-08-03T03:13:44.751Z,55.57
2022-08-03T03:18:44.752Z,55.30
2022-08-03T03:23:45.185Z,54.85
2022-08-03T03:28:43.567Z,54.74
2022-08-03T03:33:41.766Z,56.34
2022-08-03T03:38:39.894Z,58.28
2022-08-03T03:43:39.631Z,59.68
2022-08-03T03:48:37.764Z,60.26
2022-08-03T03:53:39.310Z,60.10
2022-08-03T03:58:37.508Z,60.52
2022-08-03T04:03:37.203Z,60.27
2022-08-03T04:08:52.745Z,58.61
2022-08-03T04:13:53.718Z,56.55
2022-08-03T04:18:58.940Z,54.46
2022-08-03T04:24:01.890Z,54.25
2022-08-03T04:29:01.590Z,54.96
2022-08-03T04:34:01.425Z,56.12
2022-08-03T04:39:03.741Z,55.95
2022-08-03T04:44:03.328Z,56.96
2022-08-03T04:49:04.557Z,56.11
2022-08-03T04:54:03.345Z,51.98
2022-08-03T04:59:01.705Z,50.15
2022-08-03T05:04:00.215Z,48.26
2022-08-03T05:08:59.695Z,48.11
2022-08-03T05:13:57.755Z,47.69
2022-08-03T05:18:55.864Z,46.40
2022-08-03T05:23:53.972Z,46.88
2022-08-03T05:28:53.730Z,46.54
2022-08-03T05:33:52.077Z,45.69
2022-08-03T05:38:50.270Z,45.11
2022-08-03T05:43:48.519Z,44.92
2022-08-03T05:48:48.056Z,44.28
2022-08-03T05:53:46.326Z,43.69
2022-08-03T05:58:45.566Z,43.82
2022-08-03T06:03:43.711Z,43.96
2022-08-03T06:08:44.215Z,42.91
2022-08-03T06:13:42.726Z,41.39
2022-08-03T06:18:41.660Z,40.80
2022-08-03T06:23:54.446Z,40.55
2022-08-03T06:28:55.747Z,39.51
2022-08-03T06:34:34.096Z,38.48
2022-08-03T06:39:13.145Z,37.41
2022-08-03T06:44:12.682Z,34.99
2022-08-03T06:49:10.891Z,33.59
2022-08-03T06:54:09.245Z,32.27
2022-08-03T06:59:07.375Z,32.50
2022-08-03T07:04:07.216Z,33.13
2022-08-03T07:09:05.754Z,32.82
2022-08-03T07:14:04.355Z,31.04
2022-08-03T07:19:02.468Z,30.65
2022-08-03T07:24:01.942Z,30.92
2022-08-03T07:29:00.913Z,29.64
2022-08-03T07:33:59.014Z,28.18
2022-08-03T07:38:58.254Z,28.33
2022-08-03T07:43:57.770Z,27.17
2022-08-03T07:48:55.989Z,27.35
2022-08-03T07:53:55.365Z,27.01
2022-08-03T07:58:54.005Z,26.81
2022-08-03T08:03:53.838Z,26.10
2022-08-03T08:08:52.029Z,25.86
2022-08-03T08:13:50.222Z,24.73
2022-08-03T08:18:48.312Z,24.64
2022-08-03T08:23:54.967Z,24.00
2022-08-03T08:28:55.389Z,24.53
2022-08-03T08:34:08.729Z,24.16
2022-08-03T08:39:08.345Z,23.22
2022-08-03T08:44:08.260Z,23.34
2022-08-03T08:49:10.035Z,22.82
2022-08-03T08:54:11.545Z,23.26
2022-08-03T08:59:09.939Z,23.36
2022-08-03T09:04:09.561Z,22.15
2022-08-03T09:09:09.524Z,22.25
2022-08-03T09:14:35.310Z,22.45
2022-08-03T09:19:39.734Z,23.48
2022-08-03T09:25:23.164Z,22.02
2022-08-03T09:30:33.324Z,21.73
2022-08-03T09:35:52.989Z,21.34
2022-08-03T09:40:57.441Z,21.50
2022-08-03T09:46:04.602Z,20.60
2022-08-03T09:51:14.151Z,20.28
2022-08-03T09:56:36.361Z,20.35
2022-08-03T10:01:35.339Z,20.89
2022-08-03T10:06:33.808Z,21.43
2022-08-03T10:11:40.889Z,21.47
2022-08-03T10:16:41.366Z,19.90
2022-08-03T10:21:41.674Z,19.95
2022-08-03T10:26:50.025Z,19.23
2022-08-03T10:31:57.646Z,19.28
2022-08-03T10:37:00.102Z,18.38
2022-08-03T10:42:02.658Z,17.73
2022-08-03T10:47:02.024Z,18.90
2022-08-03T10:52:00.402Z,18.27
2022-08-03T10:57:17.568Z,18.40
2022-08-03T11:02:18.152Z,17.84
2022-08-03T11:07:23.832Z,18.57
2022-08-03T11:12:30.204Z,19.73
2022-08-03T11:17:30.313Z,18.73
2022-08-03T11:22:50.179Z,19.41
2022-08-03T11:28:25.605Z,20.49
2022-08-03T11:33:36.326Z,19.23
2022-08-03T11:38:36.730Z,19.04
2022-08-03T11:43:54.617Z,18.98
2022-08-03T11:48:52.757Z,19.20
2022-08-03T11:53:54.156Z,20.36
2022-08-03T11:59:16.541Z,21.51
2022-08-03T12:04:13.873Z,22.86
2022-08-03T12:09:17.058Z,23.54
2022-08-03T12:14:48.685Z,21.91
2022-08-03T12:19:43.769Z,20.79
2022-08-03T12:24:43.223Z,19.06
2022-08-03T12:29:42.727Z,19.65
2022-08-03T12:35:00.103Z,19.48
2022-08-03T12:40:02.724Z,18.86
2022-08-03T12:45:23.985Z,18.20
2022-08-03T12:50:26.774Z,18.56
2022-08-03T12:55:40.073Z,18.88
2022-08-03T13:00:57.898Z,19.99
2022-08-03T13:05:57.500Z,20.31
2022-08-03T13:10:55.871Z,20.67
2022-08-03T13:15:54.639Z,21.44
2022-08-03T13:20:56.202Z,19.53
2022-08-03T13:25:55.155Z,20.62
2022-08-03T13:30:55.078Z,21.21
2022-08-03T13:35:53.505Z,19.93
2022-08-03T13:40:54.441Z,19.24
2022-08-03T13:45:56.662Z,18.37
2022-08-03T13:50:56.125Z,19.00
2022-08-03T13:55:55.621Z,19.74
2022-08-03T14:00:53.838Z,20.22
2022-08-03T14:05:52.002Z,18.29
2022-08-03T14:10:50.151Z,18.96
2022-08-03T14:15:51.329Z,18.94
2022-08-03T14:20:54.375Z,20.54
2022-08-03T14:25:54.513Z,20.17
2022-08-03T14:30:54.953Z,18.69
2022-08-03T14:35:53.725Z,20.24
2022-08-03T14:40:53.161Z,19.25
2022-08-03T14:45:54.006Z,20.24
2022-08-03T14:50:52.715Z,19.40
2022-08-03T14:55:52.886Z,20.08
2022-08-03T15:00:51.893Z,19.78
2022-08-03T15:05:51.746Z,19.65
2022-08-03T15:10:49.917Z,20.32
2022-08-03T15:15:49.708Z,20.43
2022-08-03T15:20:49.579Z,19.99
2022-08-03T15:26:03.974Z,20.26
2022-08-03T15:31:07.782Z,20.31
2022-08-03T15:36:06.358Z,20.76
2022-08-03T15:41:05.998Z,20.99
2022-08-03T15:51:26.705Z,20.34
2022-08-03T15:56:27.145Z,20.70
2022-08-03T16:01:27.191Z,20.60
2022-08-03T16:06:35.385Z,21.57
2022-08-03T16:11:36.062Z,21.34
2022-08-03T16:16:34.908Z,20.93
2022-08-03T16:21:33.492Z,21.32
2022-08-03T16:26:48.177Z,22.04
2022-08-03T16:31:51.273Z,21.34
2022-08-03T16:36:49.722Z,22.65
2022-08-03T16:41:54.564Z,21.92
2022-08-03T16:46:59.628Z,21.82
2022-08-03T16:51:57.735Z,22.78
2022-08-03T16:56:58.426Z,22.72
2022-08-03T17:01:56.635Z,22.67
2022-08-03T17:06:55.804Z,22.81
2022-08-03T17:11:53.905Z,23.22
2022-08-03T17:16:58.312Z,23.11
2022-08-03T17:22:03.984Z,23.43
2022-08-03T17:27:08.852Z,23.87
2022-08-03T17:32:10.706Z,23.90
2022-08-03T17:37:27.250Z,24.16
2022-08-03T17:42:33.086Z,24.55
2022-08-03T17:47:42.342Z,24.59
2022-08-03T17:52:48.237Z,24.67
2022-08-03T17:58:01.969Z,24.77
2022-08-03T18:03:18.491Z,24.91
2022-08-03T18:08:20.605Z,24.87
2022-08-03T18:13:25.756Z,25.32
2022-08-03T18:18:33.406Z,26.11
2022-08-03T18:23:37.299Z,26.25
2022-08-03T18:28:38.456Z,26.37
2022-08-03T18:34:17.025Z,26.77
2022-08-03T18:38:59.848Z,27.27
2022-08-03T18:44:06.589Z,27.69
2022-08-03T18:49:14.253Z,28.18
2022-08-03T18:54:53.438Z,28.48
2022-08-03T18:59:46.102Z,28.85
2022-08-03T19:04:51.295Z,28.82
2022-08-03T19:09:54.467Z,29.43
2022-08-03T19:14:57.629Z,29.68
2022-08-03T19:19:59.292Z,29.84
2022-08-03T19:25:01.460Z,29.57
2022-08-03T19:30:04.126Z,29.73
2022-08-03T19:35:13.202Z,29.88
2022-08-03T19:40:12.417Z,30.33
2022-08-03T19:45:14.204Z,30.40
2022-08-03T19:50:14.714Z,30.53
2022-08-03T19:55:12.995Z,30.92
2022-08-03T20:00:13.936Z,31.51
2022-08-03T20:05:15.291Z,31.20
2022-08-03T20:10:14.875Z,31.90
2022-08-03T20:15:14.040Z,32.12
2022-08-03T20:20:21.056Z,31.93
2022-08-03T20:25:37.901Z,32.78
2022-08-03T20:30:37.561Z,32.17
2022-08-03T20:35:37.245Z,32.65
2022-08-03T20:40:37.053Z,32.54
2022-08-03T20:45:58.441Z,32.96
2022-08-03T20:50:56.573Z,33.08
2022-08-03T20:56:02.190Z,33.46
2022-08-03T21:01:01.555Z,33.52
2022-08-03T21:06:07.134Z,33.11
2022-08-03T21:11:12.776Z,32.97
2022-08-03T21:16:15.054Z,33.42
2022-08-03T21:21:17.713Z,33.34
2022-08-03T21:26:17.340Z,33.23
2022-08-03T21:31:19.824Z,35.83
2022-08-03T21:36:27.949Z,37.60
2022-08-03T21:41:27.259Z,35.62
2022-08-03T21:46:27.087Z,35.40
2022-08-03T21:51:27.182Z,37.92
2022-08-03T21:56:27.607Z,39.24
2022-08-03T22:01:35.617Z,40.67
2022-08-03T22:06:36.205Z,40.92
2022-08-03T22:11:35.959Z,41.27
2022-08-03T22:16:34.270Z,41.52
2022-08-03T22:21:36.270Z,41.77
2022-08-03T22:26:40.787Z,42.23
2022-08-03T22:31:58.068Z,42.56
2022-08-03T22:37:02.900Z,41.27
2022-08-03T22:42:06.317Z,41.73
2022-08-03T22:47:05.391Z,39.97
2022-08-03T22:52:03.998Z,40.27
2022-08-03T22:57:04.607Z,40.48
2022-08-03T23:02:20.397Z,40.72
2022-08-03T23:07:23.001Z,41.41
2022-08-03T23:12:24.522Z,41.92
2022-08-03T23:17:24.427Z,42.48
2022-08-03T23:22:30.015Z,43.39
2022-08-03T23:27:32.320Z,43.08
2022-08-03T23:32:31.958Z,42.87
2022-08-03T23:37:31.214Z,50.69
2022-08-03T23:42:30.830Z,50.12
2022-08-03T23:47:47.281Z,50.69
2022-08-03T23:53:01.225Z,47.30
2022-08-03T23:58:11.118Z,47.03
